createdAt,value
2023-03-29T00:02:16.914Z,5.20
2023-03-29T00:05:25.315Z,5.20
2023-03-29T00:08:27.045Z,5.20
2023-03-29T00:11:28.744Z,5.20
2023-03-29T00:14:30.918Z,5.10
2023-03-29T00:17:33.178Z,5.10
2023-03-29T00:20:35.267Z,5.10
2023-03-29T00:23:37.102Z,5.00
2023-03-29T00:26:38.721Z,5.00
2023-03-29T00:29:40.308Z,5.00
2023-03-29T00:32:42.710Z,4.90
2023-03-29T00:35:44.569Z,4.90
2023-03-29T00:38:46.359Z,4.80
2023-03-29T00:41:51.741Z,4.70
2023-03-29T00:45:06.121Z,4.70
2023-03-29T00:48:11.314Z,4.60
2023-03-29T00:51:16.481Z,4.50
2023-03-29T00:54:18.711Z,4.50
2023-03-29T00:57:22.613Z,4.50
2023-03-29T01:00:31.727Z,4.50
2023-03-29T01:03:46.218Z,4.50
2023-03-29T01:07:09.246Z,4.40
2023-03-29T01:10:15.562Z,4.40
2023-03-29T01:14:08.851Z,4.30
2023-03-29T01:17:12.785Z,4.20
2023-03-29T01:20:22.140Z,4.20
2023-03-29T01:23:45.778Z,4.30
2023-03-29T01:26:59.586Z,4.30
2023-03-29T01:30:12.012Z,4.30
2023-03-29T01:33:23.515Z,4.30
2023-03-29T01:36:30.740Z,4.20
2023-03-29T01:39:34.135Z,4.30
2023-03-29T01:43:02.800Z,4.30
2023-03-29T01:46:16.046Z,4.30
2023-03-29T01:49:20.523Z,4.30
2023-03-29T01:52:43.059Z,4.20
2023-03-29T01:55:51.228Z,4.10
2023-03-29T01:59:00.721Z,4.10
2023-03-29T02:02:05.626Z,4.00
2023-03-29T02:05:09.889Z,4.00
2023-03-29T02:08:16.234Z,4.10
2023-03-29T02:11:19.579Z,4.00
2023-03-29T02:14:21.278Z,4.10
2023-03-29T02:17:27.996Z,4.10
2023-03-29T02:20:38.883Z,4.00
2023-03-29T02:23:45.363Z,4.10
2023-03-29T02:26:47.624Z,4.10
2023-03-29T02:29:49.452Z,4.10
2023-03-29T02:33:06.298Z,4.10
2023-03-29T02:36:46.694Z,4.10
2023-03-29T02:39:50.692Z,4.00
2023-03-29T02:42:55.611Z,4.00
2023-03-29T02:45:57.542Z,4.00
2023-03-29T02:48:59.844Z,4.10
2023-03-29T02:52:08.568Z,4.00
2023-03-29T02:55:15.776Z,4.00
2023-03-29T02:58:17.399Z,4.00
2023-03-29T03:01:20.457Z,4.00
2023-03-29T03:04:22.933Z,4.10
2023-03-29T03:07:24.957Z,4.10
2023-03-29T03:10:26.976Z,4.20
2023-03-29T03:13:28.845Z,4.20
2023-03-29T03:16:31.188Z,4.10
2023-03-29T03:19:32.838Z,4.10
2023-03-29T03:22:35.021Z,4.00
2023-03-29T03:25:36.735Z,4.10
2023-03-29T03:28:38.996Z,4.00
2023-03-29T03:31:41.231Z,4.00
2023-03-29T03:34:43.545Z,4.00
2023-03-29T03:37:45.241Z,3.90
2023-03-29T03:40:54.113Z,3.90
2023-03-29T03:43:55.781Z,3.90
2023-03-29T03:46:57.432Z,3.90
2023-03-29T03:49:59.142Z,3.90
2023-03-29T03:53:00.952Z,3.80
2023-03-29T03:56:08.656Z,3.80
2023-03-29T03:59:10.839Z,3.80
2023-03-29T04:02:12.541Z,3.90
2023-03-29T04:05:15.237Z,3.90
2023-03-29T04:08:16.996Z,3.90
2023-03-29T04:11:19.012Z,3.90
2023-03-29T04:14:21.565Z,3.90
2023-03-29T04:17:23.317Z,3.90
2023-03-29T04:20:25.432Z,3.90
2023-03-29T04:23:27.087Z,4.00
2023-03-29T04:26:28.804Z,3.90
2023-03-29T04:29:31.027Z,4.00
2023-03-29T04:32:33.111Z,3.90
2023-03-29T04:35:35.038Z,4.00
2023-03-29T04:38:37.835Z,4.00
2023-03-29T04:41:40.249Z,4.00
2023-03-29T04:44:43.652Z,3.90
2023-03-29T04:47:46.432Z,3.80
2023-03-29T04:50:48.356Z,3.80
2023-03-29T04:53:50.538Z,3.80
2023-03-29T04:56:52.649Z,3.80
2023-03-29T04:59:54.439Z,3.80
2023-03-29T05:02:57.771Z,3.80
2023-03-29T05:06:07.696Z,3.80
2023-03-29T05:09:10.530Z,3.80
2023-03-29T05:12:12.219Z,3.90
2023-03-29T05:15:14.841Z,3.90
2023-03-29T05:18:16.525Z,3.90
2023-03-29T05:21:18.496Z,4.00
2023-03-29T05:24:20.270Z,4.00
2023-03-29T05:27:22.935Z,4.00
2023-03-29T05:30:25.188Z,4.00
2023-03-29T05:33:27.486Z,4.10
2023-03-29T05:36:29.416Z,4.10
2023-03-29T05:39:34.599Z,4.20
2023-03-29T05:42:38.671Z,4.20
2023-03-29T05:45:40.529Z,4.20
2023-03-29T05:48:42.576Z,4.20
2023-03-29T05:51:45.586Z,4.20
2023-03-29T05:54:47.441Z,4.20
2023-03-29T05:57:49.263Z,4.30
2023-03-29T06:00:51.265Z,4.30
2023-03-29T06:03:53.484Z,4.40
2023-03-29T06:06:55.227Z,4.40
2023-03-29T06:09:56.862Z,4.50
2023-03-29T06:12:58.552Z,4.60
2023-03-29T06:16:01.118Z,4.70
2023-03-29T06:19:02.756Z,4.70
2023-03-29T06:22:04.442Z,4.70
2023-03-29T06:25:08.440Z,4.80
2023-03-29T06:28:13.144Z,4.90
2023-03-29T06:31:14.901Z,5.00
2023-03-29T06:34:17.388Z,5.00
2023-03-29T06:37:19.321Z,5.10
2023-03-29T06:40:21.512Z,5.20
2023-03-29T06:43:23.325Z,5.30
2023-03-29T06:46:25.291Z,5.40
2023-03-29T06:49:27.516Z,5.40
2023-03-29T06:52:29.293Z,5.30
2023-03-29T06:55:31.646Z,5.40
2023-03-29T06:58:33.369Z,5.40
2023-03-29T07:01:35.124Z,5.50
2023-03-29T07:04:36.871Z,5.50
2023-03-29T07:08:11.230Z,5.40
2023-03-29T07:11:14.951Z,5.40
2023-03-29T07:14:18.757Z,5.50
2023-03-29T07:17:20.413Z,5.50
2023-03-29T07:20:23.011Z,5.60
2023-03-29T07:23:24.702Z,5.70
2023-03-29T07:26:29.104Z,5.90
2023-03-29T07:29:32.140Z,6.00
2023-03-29T07:32:33.971Z,6.20
2023-03-29T07:35:36.228Z,6.40
2023-03-29T07:38:38.468Z,6.70
2023-03-29T07:41:40.616Z,7.00
2023-03-29T07:44:42.272Z,7.40
2023-03-29T07:47:44.679Z,7.50
2023-03-29T07:50:46.691Z,7.70
2023-03-29T07:53:49.675Z,7.90
2023-03-29T07:56:51.470Z,8.30
2023-03-29T07:59:54.279Z,8.80
2023-03-29T08:02:57.299Z,9.10
2023-03-29T08:06:02.966Z,9.00
2023-03-29T08:09:04.761Z,8.90
2023-03-29T08:12:07.536Z,8.80
2023-03-29T08:15:09.753Z,8.50
2023-03-29T08:18:11.506Z,8.70
2023-03-29T08:21:14.725Z,8.60
2023-03-29T08:24:17.232Z,8.40
2023-03-29T08:27:20.518Z,8.30
2023-03-29T08:30:22.287Z,8.40
2023-03-29T08:33:24.020Z,8.50
2023-03-29T08:36:25.705Z,8.70
2023-03-29T08:39:27.703Z,8.90
2023-03-29T08:42:41.790Z,9.00
2023-03-29T08:46:07.440Z,8.90
2023-03-29T08:49:12.366Z,8.80
2023-03-29T08:52:35.588Z,8.80
2023-03-29T08:55:42.938Z,8.80
2023-03-29T08:58:46.602Z,8.80
2023-03-29T09:01:51.824Z,8.90
2023-03-29T09:04:59.964Z,8.90
2023-03-29T09:12:23.561Z,8.70
2023-03-29T09:15:36.464Z,9.00
2023-03-29T09:19:08.018Z,9.00
2023-03-29T09:22:44.010Z,8.80
2023-03-29T09:25:56.498Z,8.70
2023-03-29T09:29:09.564Z,8.50
2023-03-29T09:32:26.563Z,8.40
2023-03-29T09:35:37.112Z,8.40
2023-03-29T09:38:43.129Z,8.50
2023-03-29T09:42:07.933Z,8.60
2023-03-29T09:45:09.991Z,8.70
2023-03-29T09:48:17.556Z,8.70
2023-03-29T09:51:23.728Z,8.90
2023-03-29T09:54:25.547Z,8.90
2023-03-29T09:57:29.090Z,8.80
2023-03-29T10:00:31.026Z,8.80
2023-03-29T10:03:34.900Z,8.80
2023-03-29T10:06:42.067Z,8.80
2023-03-29T10:09:45.660Z,8.80
2023-03-29T10:12:50.472Z,8.90
2023-03-29T10:16:17.052Z,9.00
2023-03-29T10:19:28.334Z,8.90
2023-03-29T10:22:37.634Z,8.90
2023-03-29T10:25:42.578Z,8.90
2023-03-29T10:29:17.942Z,8.80
2023-03-29T10:32:25.459Z,8.90
2023-03-29T10:35:34.801Z,9.00
2023-03-29T10:38:37.872Z,8.90
2023-03-29T10:41:40.427Z,8.80
2023-03-29T10:44:56.462Z,8.80
2023-03-29T10:53:24.632Z,8.60
2023-03-29T10:56:41.697Z,8.50
2023-03-29T11:00:06.930Z,8.60
2023-03-29T11:03:19.428Z,8.70
2023-03-29T11:06:44.774Z,8.80
2023-03-29T11:10:01.518Z,8.80
2023-03-29T11:13:26.346Z,8.80
2023-03-29T11:16:36.984Z,8.90
2023-03-29T11:24:38.823Z,9.00
2023-03-29T11:28:02.894Z,9.00
2023-03-29T11:32:06.951Z,9.00
2023-03-29T11:35:47.235Z,9.00
2023-03-29T11:39:34.021Z,9.10
2023-03-29T11:42:41.788Z,9.10
2023-03-29T11:45:50.022Z,9.20
2023-03-29T11:49:11.909Z,9.30
2023-03-29T11:52:22.523Z,9.40
2023-03-29T11:55:31.802Z,9.50
2023-03-29T11:58:38.988Z,9.50
2023-03-29T12:01:48.869Z,9.50
2023-03-29T12:04:54.765Z,9.60
2023-03-29T12:08:36.832Z,9.50
2023-03-29T12:12:39.070Z,9.60
2023-03-29T12:15:56.916Z,9.70
2023-03-29T12:19:06.964Z,9.70
2023-03-29T12:22:09.633Z,9.70
2023-03-29T12:25:18.761Z,9.70
2023-03-29T12:28:26.973Z,9.80
2023-03-29T12:31:34.364Z,9.70
2023-03-29T12:34:44.966Z,9.70
2023-03-29T12:38:09.681Z,9.70
2023-03-29T12:41:19.075Z,9.70
2023-03-29T12:44:23.495Z,9.70
2023-03-29T12:47:27.820Z,9.70
2023-03-29T12:51:26.629Z,9.70
2023-03-29T12:54:32.019Z,9.70
2023-03-29T12:57:42.950Z,9.70
2023-03-29T13:00:47.954Z,9.70
2023-03-29T13:03:52.145Z,9.80
2023-03-29T13:07:03.415Z,9.90
2023-03-29T13:10:10.110Z,10.00
2023-03-29T13:13:17.850Z,10.10
2023-03-29T13:16:28.682Z,10.20
2023-03-29T13:19:41.818Z,10.30
2023-03-29T13:22:57.500Z,10.40
2023-03-29T13:26:12.175Z,10.50
2023-03-29T13:29:38.776Z,10.60
2023-03-29T13:33:32.623Z,10.70
2023-03-29T13:36:56.674Z,10.90
2023-03-29T13:39:58.364Z,10.80
2023-03-29T13:43:21.106Z,10.80
2023-03-29T13:46:43.985Z,10.90
2023-03-29T13:49:53.921Z,10.90
2023-03-29T13:53:11.120Z,10.90
2023-03-29T13:56:19.885Z,10.90
2023-03-29T13:59:39.900Z,10.90
2023-03-29T14:02:50.094Z,11.00
2023-03-29T14:06:01.838Z,11.10
2023-03-29T14:09:08.952Z,11.20
2023-03-29T14:12:15.711Z,11.20
2023-03-29T14:15:36.899Z,11.20
2023-03-29T14:18:41.123Z,11.20
2023-03-29T14:21:43.803Z,11.20
2023-03-29T14:24:49.168Z,11.20
2023-03-29T14:27:50.891Z,11.30
2023-03-29T14:30:53.993Z,11.30
2023-03-29T14:33:58.236Z,11.30
2023-03-29T14:37:00.063Z,11.30
2023-03-29T14:40:01.898Z,11.40
2023-03-29T14:43:07.926Z,11.40
2023-03-29T14:46:10.120Z,11.50
2023-03-29T14:49:16.626Z,11.60
2023-03-29T14:52:19.550Z,11.80
2023-03-29T14:55:24.863Z,11.80
2023-03-29T14:58:33.012Z,11.80
2023-03-29T15:01:44.459Z,11.80
2023-03-29T15:04:56.457Z,11.70
2023-03-29T15:07:58.452Z,11.70
2023-03-29T15:11:00.984Z,11.70
2023-03-29T15:14:12.154Z,11.70
2023-03-29T15:17:47.050Z,11.70
2023-03-29T15:20:52.512Z,11.70
2023-03-29T15:23:58.313Z,11.70
2023-03-29T15:27:12.327Z,11.70
2023-03-29T15:30:17.359Z,11.80
2023-03-29T15:33:24.113Z,11.80
2023-03-29T15:36:26.599Z,11.90
2023-03-29T15:39:29.308Z,11.90
2023-03-29T15:42:31.482Z,11.80
2023-03-29T15:45:33.440Z,11.80
2023-03-29T15:48:35.179Z,11.70
2023-03-29T15:51:37.050Z,11.80
2023-03-29T15:54:38.830Z,11.80
2023-03-29T15:57:42.936Z,11.80
2023-03-29T16:00:51.058Z,11.70
2023-03-29T16:03:52.801Z,11.70
2023-03-29T16:06:55.513Z,11.70
2023-03-29T16:09:57.724Z,11.70
2023-03-29T16:12:59.436Z,11.60
2023-03-29T16:16:01.748Z,11.70
2023-03-29T16:19:03.645Z,11.70
2023-03-29T16:22:07.335Z,11.70
2023-03-29T16:25:28.267Z,11.60
2023-03-29T16:28:29.964Z,11.60
2023-03-29T16:31:32.708Z,11.60
2023-03-29T16:34:35.892Z,11.50
2023-03-29T16:37:37.635Z,11.50
2023-03-29T16:40:39.448Z,11.50
2023-03-29T16:43:41.441Z,11.40
2023-03-29T16:46:43.385Z,11.40
2023-03-29T16:49:48.563Z,11.30
2023-03-29T16:52:53.710Z,11.30
2023-03-29T16:55:55.344Z,11.30
2023-03-29T16:58:57.006Z,11.30
2023-03-29T17:01:58.761Z,11.20
2023-03-29T17:05:00.532Z,11.20
2023-03-29T17:08:02.267Z,11.20
2023-03-29T17:11:06.224Z,11.20
2023-03-29T17:14:08.325Z,11.20
2023-03-29T17:17:10.007Z,11.20
2023-03-29T17:20:12.289Z,11.10
2023-03-29T17:23:14.063Z,11.10
2023-03-29T17:26:15.761Z,11.00
2023-03-29T17:29:17.483Z,11.00
2023-03-29T17:32:19.144Z,11.00
2023-03-29T17:35:21.438Z,11.00
2023-03-29T17:38:23.201Z,11.00
2023-03-29T17:41:29.101Z,11.00
2023-03-29T17:44:42.649Z,11.00
2023-03-29T17:47:44.670Z,10.90
2023-03-29T17:50:46.666Z,10.90
2023-03-29T17:53:48.361Z,10.90
2023-03-29T17:56:50.585Z,10.90
2023-03-29T17:59:52.704Z,10.80
2023-03-29T18:02:54.598Z,10.80
2023-03-29T18:05:56.561Z,10.80
2023-03-29T18:09:01.331Z,10.80
2023-03-29T18:12:03.047Z,10.80
2023-03-29T18:15:05.209Z,10.70
2023-03-29T18:18:07.025Z,10.70
2023-03-29T18:21:10.787Z,10.70
2023-03-29T18:24:12.557Z,10.70
2023-03-29T18:27:15.727Z,10.70
2023-03-29T18:30:17.474Z,10.70
2023-03-29T18:33:19.172Z,10.60
2023-03-29T18:36:20.890Z,10.60
2023-03-29T18:39:22.600Z,10.60
2023-03-29T18:42:24.304Z,10.60
2023-03-29T18:45:26.260Z,10.60
2023-03-29T18:48:30.389Z,10.60
2023-03-29T18:51:32.934Z,10.60
2023-03-29T18:54:34.938Z,10.50
2023-03-29T18:57:36.752Z,10.60
2023-03-29T19:00:42.641Z,10.50
2023-03-29T19:03:44.599Z,10.50
2023-03-29T19:06:47.349Z,10.60
2023-03-29T19:09:49.045Z,10.60
2023-03-29T19:12:53.869Z,10.60
2023-03-29T19:15:55.647Z,10.60
2023-03-29T19:18:57.408Z,10.60
2023-03-29T19:22:00.601Z,10.60
2023-03-29T19:25:04.501Z,10.60
2023-03-29T19:28:06.194Z,10.60
2023-03-29T19:31:08.056Z,10.60
2023-03-29T19:34:11.052Z,10.70
2023-03-29T19:37:13.199Z,10.70
2023-03-29T19:40:15.313Z,10.70
2023-03-29T19:43:18.056Z,10.60
2023-03-29T19:46:20.411Z,10.60
2023-03-29T19:49:25.119Z,10.60
2023-03-29T19:52:28.382Z,10.70
2023-03-29T19:55:30.078Z,10.70
2023-03-29T19:58:32.058Z,10.70
2023-03-29T20:01:33.846Z,10.80
2023-03-29T20:04:35.686Z,10.70
2023-03-29T20:07:37.481Z,10.70
2023-03-29T20:10:43.386Z,10.70
2023-03-29T20:13:45.761Z,10.70
2023-03-29T20:16:49.561Z,10.70
2023-03-29T20:19:51.320Z,10.80
2023-03-29T20:22:58.052Z,10.80
2023-03-29T20:26:00.132Z,10.80
2023-03-29T20:29:01.935Z,10.80
2023-03-29T20:32:04.184Z,10.80
2023-03-29T20:35:06.397Z,10.80
2023-03-29T20:38:08.082Z,10.80
2023-03-29T20:41:10.767Z,10.80
2023-03-29T20:44:13.586Z,10.90
2023-03-29T20:47:16.779Z,10.90
2023-03-29T20:50:19.266Z,10.90
2023-03-29T20:53:20.982Z,10.90
2023-03-29T20:56:26.065Z,10.90
2023-03-29T20:59:28.470Z,10.90
2023-03-29T21:02:30.282Z,10.90
2023-03-29T21:05:33.383Z,10.90
2023-03-29T21:08:35.116Z,10.90
2023-03-29T21:11:38.406Z,10.90
2023-03-29T21:14:40.069Z,10.90
2023-03-29T21:17:42.066Z,11.00
2023-03-29T21:20:44.413Z,10.90
2023-03-29T21:23:54.349Z,10.90
2023-03-29T21:26:56.032Z,10.90
2023-03-29T21:29:57.898Z,10.90
2023-03-29T21:33:00.353Z,10.90
2023-03-29T21:36:02.307Z,10.90
2023-03-29T21:39:04.655Z,10.90
2023-03-29T21:42:06.332Z,10.90
2023-03-29T21:45:22.449Z,10.90
2023-03-29T21:48:24.200Z,10.90
2023-03-29T21:51:26.162Z,10.90
2023-03-29T21:54:28.336Z,10.90
2023-03-29T21:57:30.060Z,10.90
2023-03-29T22:00:32.152Z,10.90
2023-03-29T22:03:59.058Z,10.90
2023-03-29T22:07:00.742Z,10.90
2023-03-29T22:10:04.314Z,10.90
2023-03-29T22:13:06.078Z,10.80
2023-03-29T22:16:08.023Z,10.90
2023-03-29T22:19:10.632Z,10.90
2023-03-29T22:22:14.257Z,10.90
2023-03-29T22:25:17.577Z,10.90
2023-03-29T22:28:19.294Z,11.00
2023-03-29T22:31:23.246Z,11.00
2023-03-29T22:34:25.037Z,10.90
2023-03-29T22:37:26.802Z,10.90
2023-03-29T22:40:28.550Z,10.90
2023-03-29T22:43:30.532Z,10.90
2023-03-29T22:46:32.474Z,10.90
2023-03-29T22:49:34.334Z,10.90
2023-03-29T22:52:36.360Z,10.90
2023-03-29T22:55:38.154Z,10.90
2023-03-29T22:58:40.040Z,10.90
2023-03-29T23:01:41.962Z,10.90
2023-03-29T23:04:45.375Z,10.90
2023-03-29T23:07:47.234Z,11.00
2023-03-29T23:10:49.158Z,10.90
2023-03-29T23:13:50.832Z,10.90
2023-03-29T23:16:52.879Z,10.90
2023-03-29T23:19:54.555Z,11.00
2023-03-29T23:22:56.250Z,11.00
2023-03-29T23:25:57.929Z,11.00
2023-03-29T23:28:59.729Z,10.90
2023-03-29T23:32:01.457Z,11.00
2023-03-29T23:35:04.449Z,11.00
2023-03-29T23:38:08.453Z,11.00
2023-03-29T23:41:12.639Z,11.00
2023-03-29T23:44:14.718Z,11.00
2023-03-29T23:47:16.664Z,11.00
2023-03-29T23:50:18.522Z,11.00
2023-03-29T23:53:20.953Z,11.00
2023-03-29T23:56:23.362Z,11.00
2023-03-29T23:59:29.800Z,11.00
